Time;durP1;ratioP1;P1;durP2;ratioP2;P2;SDS_P1;SDS_P2;PMS_P1;PMS_P2;Temp;Humidity;BMP_temperature;BMP_pressure;BME280_temperature;BME280_humidity;BME280_pressure;Samples;Min_cycle;Max_cycle;Signal;HPM_P1;HPM_P2
2021/12/25 00:00:52;;;;;;;19.73;10.43;;;;;;;4.77;100.00;100648.84;5032121;28;20029;-73
2021/12/25 00:03:17;;;;;;;20.65;10.43;;;;;;;4.70;100.00;100644.63;5033492;28;20030;-73
2021/12/25 00:05:45;;;;;;;20.55;10.98;;;;;;;4.64;100.00;100650.88;5033305;28;20381;-73
2021/12/25 00:08:11;;;;;;;18.50;10.20;;;;;;;4.56;100.00;100656.28;5032783;28;20405;-73
2021/12/25 00:10:36;;;;;;;17.95;11.05;;;;;;;4.48;100.00;100658.25;5032903;28;20037;-73
2021/12/25 00:13:01;;;;;;;20.02;11.30;;;;;;;4.41;100.00;100654.03;5032886;28;20458;-73
2021/12/25 00:15:28;;;;;;;21.85;11.43;;;;;;;4.37;100.00;100668.09;5032994;28;20065;-73
2021/12/25 00:17:53;;;;;;;23.65;12.25;;;;;;;4.36;100.00;100655.88;5033290;28;20032;-72
2021/12/25 00:20:18;;;;;;;27.02;12.20;;;;;;;4.34;100.00;100658.53;5030828;28;20424;-73
2021/12/25 00:22:44;;;;;;;26.38;12.27;;;;;;;4.25;100.00;100670.09;5013224;28;20034;-73
2021/12/25 00:25:09;;;;;;;28.10;12.60;;;;;;;4.18;100.00;100658.03;5013506;28;20087;-73
2021/12/25 00:27:51;;;;;;;24.75;13.35;;;;;;;4.17;100.00;100661.53;5016240;28;20025;-73
2021/12/25 00:30:34;;;;;;;30.93;14.57;;;;;;;4.05;100.00;100660.03;5033141;28;20038;-72
2021/12/25 00:33:07;;;;;;;31.27;14.52;;;;;;;4.00;100.00;100667.09;5032363;28;20329;-73
2021/12/25 00:35:33;;;;;;;31.70;13.90;;;;;;;3.87;100.00;100663.03;5033090;28;20042;-72
2021/12/25 00:37:58;;;;;;;29.63;13.95;;;;;;;3.88;100.00;100662.13;5032806;28;20034;-73
2021/12/25 00:40:24;;;;;;;33.35;14.15;;;;;;;3.88;100.00;100663.00;5033035;28;20041;-72
2021/12/25 00:42:49;;;;;;;31.20;15.38;;;;;;;3.88;100.00;100664.75;5031939;28;20083;-73
2021/12/25 00:45:15;;;;;;;34.78;15.25;;;;;;;3.85;100.00;100665.69;5032769;28;20033;-72
2021/12/25 00:47:41;;;;;;;36.20;16.10;;;;;;;3.86;100.00;100664.78;5032864;28;20105;-73
2021/12/25 00:50:07;;;;;;;39.40;16.58;;;;;;;3.80;100.00;100662.28;5032766;28;20030;-73
2021/12/25 00:52:32;;;;;;;36.20;16.65;;;;;;;3.72;100.00;100659.81;5032319;28;20505;-73
2021/12/25 00:54:58;;;;;;;36.80;15.95;;;;;;;3.68;100.00;100665.97;5032300;28;20025;-72
2021/12/25 00:57:23;;;;;;;34.22;15.75;;;;;;;3.65;100.00;100667.81;5032320;28;20041;-73
2021/12/25 00:59:48;;;;;;;37.35;16.73;;;;;;;3.68;100.00;100671.22;5033002;28;20048;-73
2021/12/25 01:02:14;;;;;;;37.05;17.30;;;;;;;3.61;100.00;100669.63;5032512;28;20026;-73
2021/12/25 01:04:40;;;;;;;34.40;15.82;;;;;;;3.65;100.00;100665.22;5031013;28;20036;-73
2021/12/25 01:07:05;;;;;;;36.15;16.15;;;;;;;3.59;100.00;100674.91;5032698;28;20017;-73
2021/12/25 01:09:31;;;;;;;32.17;15.30;;;;;;;3.62;100.00;100676.59;5032346;28;20026;-73
2021/12/25 01:11:57;;;;;;;29.15;15.23;;;;;;;3.64;100.00;100674.81;5032582;28;20036;-72
2021/12/25 01:14:38;;;;;;;34.28;15.80;;;;;;;3.61;100.00;100674.88;5032154;28;20030;-73
2021/12/25 01:17:28;;;;;;;32.00;14.65;;;;;;;3.61;100.00;100675.72;5032409;28;20034;-73
2021/12/25 01:23:31;;;;;;;30.88;14.40;;;;;;;3.59;100.00;100671.41;4975167;28;20415;-72
2021/12/25 01:26:47;;;;;;;26.20;14.35;;;;;;;3.52;100.00;100677.66;4975207;28;20113;-72
2021/12/25 01:39:11;;;;;;;29.45;14.52;;;;;;;3.48;100.00;100670.72;4975635;28;20070;-72
2021/12/25 01:49:38;;;;;;;23.75;13.32;;;;;;;3.39;100.00;100663.91;4975065;28;20406;-73
2021/12/25 01:52:05;;;;;;;22.38;12.77;;;;;;;3.40;100.00;100663.03;4974600;28;20027;-72
2021/12/25 01:54:30;;;;;;;23.80;12.65;;;;;;;3.37;100.00;100660.47;5025808;28;20038;-73
2021/12/25 01:56:56;;;;;;;24.63;13.07;;;;;;;3.29;100.00;100665.84;5035352;28;20048;-75
2021/12/25 01:59:21;;;;;;;23.73;12.75;;;;;;;3.27;100.00;100663.25;5035108;28;20029;-75
2021/12/25 02:01:47;;;;;;;24.65;12.93;;;;;;;3.26;100.00;100658.91;5035370;28;20390;-75
2021/12/25 02:04:12;;;;;;;22.92;13.15;;;;;;;3.26;100.00;100661.53;5035400;28;20052;-75
2021/12/25 02:06:38;;;;;;;23.98;12.68;;;;;;;3.19;100.00;100667.75;5034895;28;20095;-75
2021/12/25 02:09:04;;;;;;;22.52;12.43;;;;;;;3.20;100.00;100668.63;5034654;28;20072;-75
2021/12/25 02:11:29;;;;;;;20.42;11.65;;;;;;;3.16;100.00;100667.81;5034681;28;20461;-75
2021/12/25 02:13:55;;;;;;;19.38;11.65;;;;;;;3.10;100.00;100675.75;5035480;28;20079;-74
2021/12/25 02:16:24;;;;;;;20.33;11.30;;;;;;;3.05;100.00;100672.34;5034963;28;20396;-74
2021/12/25 02:19:03;;;;;;;22.25;11.55;;;;;;;3.02;100.00;100667.16;5034996;28;20025;-72
2021/12/25 02:21:38;;;;;;;22.65;11.98;;;;;;;3.02;100.00;100678.50;5034943;28;20033;-74
2021/12/25 02:24:06;;;;;;;21.75;11.95;;;;;;;2.95;100.00;100680.38;5034952;28;20419;-74
2021/12/25 02:26:32;;;;;;;23.00;13.50;;;;;;;2.92;100.00;100682.16;5033916;28;20090;-74
2021/12/25 02:28:58;;;;;;;19.92;11.40;;;;;;;2.74;100.00;100684.16;5034956;28;20108;-75
2021/12/25 02:31:24;;;;;;;21.95;12.80;;;;;;;2.74;100.00;100684.16;5033867;28;20068;-74
2021/12/25 02:33:50;;;;;;;21.63;12.95;;;;;;;2.65;100.00;100686.03;5035015;28;20057;-74
2021/12/25 02:36:16;;;;;;;22.23;12.30;;;;;;;2.60;100.00;100679.13;5034295;28;20037;-74
2021/12/25 02:38:43;;;;;;;22.65;13.35;;;;;;;2.57;100.00;100683.53;5034660;28;20099;-74
2021/12/25 02:41:09;;;;;;;20.00;12.48;;;;;;;2.55;100.00;100685.31;5034474;28;20416;-74
2021/12/25 02:43:35;;;;;;;19.27;12.15;;;;;;;2.55;100.00;100677.47;5034510;28;20041;-75
2021/12/25 02:46:03;;;;;;;19.27;11.90;;;;;;;2.50;100.00;100695.81;5034268;28;20051;-74
2021/12/25 02:48:29;;;;;;;18.63;11.55;;;;;;;2.45;100.00;100700.25;5033695;28;20359;-74
2021/12/25 02:50:55;;;;;;;19.20;11.48;;;;;;;2.46;100.00;100697.63;5034166;28;20028;-74
2021/12/25 02:53:20;;;;;;;20.45;11.63;;;;;;;2.46;100.00;100707.22;5034201;28;20033;-75
2021/12/25 02:55:47;;;;;;;20.95;12.25;;;;;;;2.49;100.00;100704.53;5033869;28;20498;-74
2021/12/25 02:58:13;;;;;;;21.27;11.95;;;;;;;2.51;100.00;100696.72;5034140;28;20465;-74
2021/12/25 03:00:44;;;;;;;21.33;12.60;;;;;;;2.50;100.00;100690.59;5034687;28;20025;-74
2021/12/25 03:03:10;;;;;;;20.42;12.13;;;;;;;2.47;100.00;100695.88;5034172;28;20381;-74
2021/12/25 03:05:36;;;;;;;19.48;11.45;;;;;;;2.37;100.00;100691.66;5033760;28;20033;-74
2021/12/25 03:08:03;;;;;;;20.50;10.57;;;;;;;2.37;100.00;100702.13;5033737;28;20044;-74
2021/12/25 03:10:32;;;;;;;20.13;11.38;;;;;;;2.37;100.00;100708.19;5034243;28;20033;-75
2021/12/25 03:15:45;;;;;;;19.05;11.20;;;;;;;2.36;100.00;100701.25;5033587;28;20092;-74
2021/12/25 03:18:32;;;;;;;21.20;11.57;;;;;;;2.39;100.00;100709.06;5033409;28;20389;-74
2021/12/25 03:21:02;;;;;;;18.02;10.63;;;;;;;2.44;100.00;100716.81;5033973;28;20473;-74
2021/12/25 03:23:28;;;;;;;16.90;10.32;;;;;;;2.46;100.00;100710.69;5033887;28;20025;-74
2021/12/25 03:25:55;;;;;;;20.83;11.43;;;;;;;2.39;100.00;100722.13;5033729;28;20035;-74
2021/12/25 03:28:29;;;;;;;19.52;11.55;;;;;;;2.41;100.00;100722.09;5033408;28;20029;-74
2021/12/25 03:30:59;;;;;;;17.95;10.88;;;;;;;2.45;100.00;100724.63;5033490;28;20017;-72
2021/12/25 03:33:25;;;;;;;20.75;11.70;;;;;;;2.45;100.00;100737.69;5033908;28;20025;-74
2021/12/25 03:35:50;;;;;;;18.20;11.02;;;;;;;2.39;100.00;100731.69;5033797;28;20545;-75
2021/12/25 03:38:19;;;;;;;19.90;11.40;;;;;;;2.39;100.00;100734.31;5033294;28;20029;-73
2021/12/25 03:40:45;;;;;;;20.33;10.68;;;;;;;2.39;100.00;100735.19;5033872;28;20018;-73
2021/12/25 03:43:11;;;;;;;19.05;11.75;;;;;;;2.31;100.00;100733.56;5032973;28;20046;-74
2021/12/25 03:45:37;;;;;;;21.00;11.68;;;;;;;2.29;100.00;100734.44;5033284;28;20040;-75
2021/12/25 03:48:09;;;;;;;20.33;11.68;;;;;;;2.26;100.00;100736.22;5033760;28;20095;-79
2021/12/25 03:57:35;;;;;;;20.27;10.77;;;;;;;2.27;100.00;100741.41;5033642;28;19920;-74
2021/12/25 03:58:55;;;;;;;20.48;12.07;;;;;;;2.19;100.00;100747.63;5033068;28;20183;-74
2021/12/25 04:04:02;;;;;;;23.20;12.10;;;;;;;2.20;100.00;100752.84;5033253;28;20037;-74
2021/12/25 04:06:27;;;;;;;19.42;11.95;;;;;;;2.19;100.00;100750.25;5032838;28;20029;-74
2021/12/25 04:08:53;;;;;;;22.35;12.48;;;;;;;2.10;100.00;100748.59;5033101;28;20040;-74
2021/12/25 04:11:28;;;;;;;24.77;12.48;;;;;;;2.11;100.00;100760.75;5032926;28;20021;-74
2021/12/25 04:13:54;;;;;;;24.52;11.82;;;;;;;2.08;100.00;100760.81;5033001;28;20033;-76
2021/12/25 04:16:19;;;;;;;22.05;12.32;;;;;;;2.10;100.00;100757.28;5033184;28;20024;-76
2021/12/25 04:18:45;;;;;;;21.55;12.13;;;;;;;2.16;100.00;100760.72;5032595;28;20030;-76
2021/12/25 04:21:10;;;;;;;21.20;11.18;;;;;;;2.06;100.00;100762.56;5031400;28;20489;-76
2021/12/25 04:23:39;;;;;;;23.13;12.25;;;;;;;2.06;100.00;100762.56;5032675;28;20044;-76
2021/12/25 04:26:04;;;;;;;25.80;12.88;;;;;;;2.04;100.00;100759.13;5032840;28;20030;-73
2021/12/25 04:28:46;;;;;;;23.20;12.68;;;;;;;2.03;100.00;100770.44;5032632;28;20103;-76
2021/12/25 04:48:21;;;;;;;28.85;14.57;;;;;;;1.86;100.00;100781.06;4953070;29;20117;-74
2021/12/25 05:04:34;;;;;;;29.88;14.75;;;;;;;1.62;100.00;100802.16;4898561;29;20538;-73
2021/12/25 05:07:00;;;;;;;32.90;15.05;;;;;;;1.60;100.00;100811.75;4899240;29;20114;-73
2021/12/25 05:09:25;;;;;;;26.27;13.35;;;;;;;1.58;100.00;100813.50;4899020;29;20056;-74
2021/12/25 05:11:51;;;;;;;28.70;14.25;;;;;;;1.52;100.00;100808.31;4899040;29;20145;-74
2021/12/25 05:14:16;;;;;;;31.08;15.07;;;;;;;1.58;100.00;100807.41;4910959;29;20050;-73
2021/12/25 05:16:41;;;;;;;26.15;13.35;;;;;;;1.51;100.00;100818.78;4955598;29;20039;-74
2021/12/25 05:19:07;;;;;;;24.38;12.70;;;;;;;1.46;100.00;100814.47;4956123;29;20471;-74
2021/12/25 05:21:33;;;;;;;27.42;13.32;;;;;;;1.52;100.00;100812.69;4956173;29;20070;-74
2021/12/25 05:23:59;;;;;;;25.55;13.55;;;;;;;1.50;100.00;100814.41;4955839;29;20387;-75
2021/12/25 05:26:24;;;;;;;23.17;12.98;;;;;;;1.51;100.00;100819.66;4955064;29;20071;-75
2021/12/25 05:28:58;;;;;;;23.40;12.55;;;;;;;1.51;100.00;100816.16;4955925;29;20468;-75
2021/12/25 05:31:25;;;;;;;23.48;12.57;;;;;;;1.43;100.00;100819.72;4955608;29;20075;-75
2021/12/25 05:33:51;;;;;;;28.52;13.00;;;;;;;1.43;100.00;100818.81;4955829;29;20031;-76
2021/12/25 05:36:16;;;;;;;26.95;13.68;;;;;;;1.42;100.00;100819.69;4955123;29;20487;-75
2021/12/25 05:38:42;;;;;;;24.45;12.98;;;;;;;1.47;100.00;100833.56;5004681;28;20047;-76
2021/12/25 05:41:07;;;;;;;26.45;13.90;;;;;;;1.49;100.00;100823.16;5035766;28;20508;-76
2021/12/25 05:43:33;;;;;;;26.83;12.60;;;;;;;1.50;100.00;100830.06;5035418;28;20072;-76
2021/12/25 05:45:58;;;;;;;29.42;13.68;;;;;;;1.40;100.00;100835.38;5035226;28;20444;-74
2021/12/25 05:48:23;;;;;;;31.42;13.98;;;;;;;1.34;100.00;100831.94;5035540;28;20071;-73
2021/12/25 05:50:49;;;;;;;23.38;13.02;;;;;;;1.33;100.00;100835.44;5035962;28;20032;-74
2021/12/25 05:53:15;;;;;;;28.55;13.02;;;;;;;1.25;100.00;100840.69;5035255;28;20037;-73
2021/12/25 05:55:40;;;;;;;26.23;12.65;;;;;;;1.25;100.00;100843.31;5035640;28;20072;-73
2021/12/25 05:58:07;;;;;;;23.90;12.85;;;;;;;1.27;100.00;100845.03;5035414;28;20386;-73
2021/12/25 06:00:35;;;;;;;27.15;12.63;;;;;;;1.24;100.00;100844.19;5035660;28;20053;-73
2021/12/25 06:03:03;;;;;;;23.33;12.50;;;;;;;1.29;100.00;100856.34;5035083;28;20076;-74
2021/12/25 06:05:28;;;;;;;27.00;12.23;;;;;;;1.29;100.00;100856.34;5035131;28;20028;-74
2021/12/25 06:07:54;;;;;;;23.15;11.55;;;;;;;1.26;100.00;100858.94;5034387;28;20038;-74
2021/12/25 06:10:19;;;;;;;22.13;11.65;;;;;;;1.19;100.00;100854.66;5035366;28;20071;-74
2021/12/25 06:12:47;;;;;;;21.33;10.05;;;;;;;1.19;100.00;100864.19;5034828;28;20025;-74
2021/12/25 06:15:15;;;;;;;19.00;10.88;;;;;;;1.23;100.00;100856.38;5035310;28;20025;-75
2021/12/25 06:17:41;;;;;;;17.23;9.52;;;;;;;1.19;100.00;100857.25;5035136;28;20044;-74
2021/12/25 06:20:08;;;;;;;21.92;9.25;;;;;;;1.18;100.00;100859.84;5034717;28;20469;-75
2021/12/25 06:22:33;;;;;;;21.20;10.05;;;;;;;1.21;100.00;100860.72;5034668;28;20381;-74
2021/12/25 06:24:59;;;;;;;18.08;9.88;;;;;;;1.21;100.00;100862.47;5034932;28;20044;-76
2021/12/25 06:27:24;;;;;;;18.02;8.88;;;;;;;1.18;100.00;100876.41;5034932;28;20032;-75
2021/12/25 06:29:50;;;;;;;15.85;8.73;;;;;;;1.14;100.00;100872.94;5034641;28;20163;-75
2021/12/25 06:32:16;;;;;;;16.55;7.93;;;;;;;1.08;100.00;100878.16;5034633;28;20465;-75
2021/12/25 06:34:42;;;;;;;15.77;7.70;;;;;;;1.09;100.00;100876.44;5034548;28;20040;-75
2021/12/25 06:37:07;;;;;;;14.82;7.35;;;;;;;0.92;99.44;100880.00;5034903;28;20021;-74
2021/12/25 06:39:33;;;;;;;10.55;6.45;;;;;;;0.79;99.08;100881.78;5034515;28;20374;-75
2021/12/25 06:41:59;;;;;;;13.32;7.35;;;;;;;0.75;99.89;100882.66;5034487;28;21196;-76
2021/12/25 06:44:27;;;;;;;12.65;6.70;;;;;;;0.76;100.00;100873.97;5034061;28;20393;-76
2021/12/25 06:46:53;;;;;;;12.60;6.85;;;;;;;0.76;99.39;100886.16;5034547;28;20029;-75
2021/12/25 06:49:19;;;;;;;11.82;6.70;;;;;;;0.78;99.66;100881.78;5034399;28;20469;-74
2021/12/25 06:51:44;;;;;;;11.43;5.88;;;;;;;0.61;98.21;100890.50;5034134;28;20034;-72
2021/12/25 06:54:10;;;;;;;9.23;4.95;;;;;;;0.56;96.82;100883.59;5034111;28;20087;-72
2021/12/25 06:56:35;;;;;;;8.73;4.80;;;;;;;0.41;97.39;100901.00;5034579;28;20048;-72
2021/12/25 06:59:01;;;;;;;8.52;4.88;;;;;;;0.40;97.64;100898.41;5034240;28;20465;-75
2021/12/25 07:01:26;;;;;;;7.63;4.57;;;;;;;0.38;97.60;100893.19;5034181;28;20032;-76
2021/12/25 07:03:51;;;;;;;7.93;3.90;;;;;;;0.38;96.34;100900.13;5034126;28;20057;-76
2021/12/25 07:06:17;;;;;;;7.32;3.28;;;;;;;0.31;94.56;100896.69;5031875;28;20021;-74
2021/12/25 07:08:42;;;;;;;5.35;2.88;;;;;;;0.23;94.25;100906.22;5022719;28;20590;-74
2021/12/25 07:11:08;;;;;;;6.88;3.03;;;;;;;0.11;93.76;100909.72;5029328;28;20018;-74
2021/12/25 07:13:33;;;;;;;5.57;2.95;;;;;;;0.03;93.70;100911.47;5023277;28;20469;-72
2021/12/25 07:15:58;;;;;;;6.05;2.88;;;;;;;0.04;94.23;100914.06;5033543;28;20036;-70
2021/12/25 07:18:24;;;;;;;5.53;2.85;;;;;;;-0.05;94.58;100917.53;5032797;28;20115;-75
2021/12/25 07:20:51;;;;;;;5.85;3.17;;;;;;;-0.09;95.38;100918.41;5033246;28;20061;-72
2021/12/25 07:23:16;;;;;;;5.07;2.80;;;;;;;-0.14;95.07;100934.88;5027204;28;20041;-74
2021/12/25 07:25:41;;;;;;;4.85;2.85;;;;;;;-0.28;95.59;100922.72;5022063;28;20075;-72
2021/12/25 07:28:07;;;;;;;6.57;2.67;;;;;;;-0.38;95.83;100923.59;5033639;28;20377;-70
2021/12/25 07:30:33;;;;;;;4.88;2.90;;;;;;;-0.43;96.15;100923.56;5033594;28;20465;-71
2021/12/25 07:32:58;;;;;;;6.28;3.35;;;;;;;-0.47;96.80;100928.75;5032583;28;20079;-71
2021/12/25 07:35:24;;;;;;;6.45;2.58;;;;;;;-0.50;95.58;100929.63;5025502;28;20527;-74
2021/12/25 07:37:49;;;;;;;4.95;2.80;;;;;;;-0.54;94.33;100933.06;5013468;28;20033;-73
2021/12/25 07:40:15;;;;;;;3.53;2.60;;;;;;;-0.57;94.92;100936.53;5021484;28;20100;-74
2021/12/25 07:42:40;;;;;;;4.07;2.50;;;;;;;-0.61;94.77;100947.81;5026347;28;20041;-72
2021/12/25 07:45:07;;;;;;;5.30;2.60;;;;;;;-0.67;94.92;100937.38;5032535;28;20117;-74
2021/12/25 07:47:39;;;;;;;4.57;2.60;;;;;;;-0.68;95.61;100951.25;5032871;28;20128;-71
2021/12/25 07:50:04;;;;;;;5.88;2.40;;;;;;;-0.70;95.15;100946.03;5031842;28;20477;-74
2021/12/25 07:52:30;;;;;;;5.78;2.30;;;;;;;-0.75;95.35;100945.16;5033394;28;20056;-74
2021/12/25 07:54:55;;;;;;;3.90;2.40;;;;;;;-0.77;95.23;100956.41;5033083;28;20477;-75
2021/12/25 07:57:21;;;;;;;5.15;2.28;;;;;;;-0.82;95.32;100959.00;5032623;28;20875;-78
2021/12/25 07:59:46;;;;;;;5.75;2.50;;;;;;;-0.82;95.05;100964.19;5031997;28;20034;-75
2021/12/25 08:02:11;;;;;;;3.75;2.40;;;;;;;-0.81;95.32;100967.69;5033076;28;20028;-78
2021/12/25 08:04:37;;;;;;;5.28;2.40;;;;;;;-0.89;94.63;100971.09;5032626;28;20120;-76
2021/12/25 08:07:02;;;;;;;4.65;2.35;;;;;;;-0.92;94.68;100971.09;5032658;28;20116;-75
2021/12/25 08:09:29;;;;;;;4.93;2.50;;;;;;;-0.92;94.79;100970.22;5032931;28;20033;-75
2021/12/25 08:12:00;;;;;;;4.15;2.45;;;;;;;-0.95;95.42;100972.81;5024733;28;20033;-74
2021/12/25 08:14:26;;;;;;;4.03;2.30;;;;;;;-1.01;95.33;100973.63;5029116;28;20091;-76
2021/12/25 08:16:53;;;;;;;5.22;2.83;;;;;;;-1.04;95.29;100977.09;5031411;28;20038;-75
2021/12/25 08:19:20;;;;;;;6.30;2.90;;;;;;;-1.06;95.88;100981.44;5031785;28;20014;-75
2021/12/25 08:21:45;;;;;;;4.47;2.50;;;;;;;-1.13;94.98;100971.00;5032016;28;20477;-75
2021/12/25 08:24:11;;;;;;;4.38;2.00;;;;;;;-1.20;95.23;100975.28;5032633;28;20116;-76
2021/12/25 08:26:36;;;;;;;4.50;2.47;;;;;;;-1.19;94.64;100987.41;5032937;28;20461;-76
2021/12/25 08:29:02;;;;;;;3.15;2.20;;;;;;;-1.27;95.22;100989.09;5014520;28;20079;-75
2021/12/25 08:31:27;;;;;;;3.78;2.60;;;;;;;-1.34;94.29;100996.00;5017061;28;20108;-75
2021/12/25 08:33:52;;;;;;;5.75;2.33;;;;;;;-1.26;94.53;101003.84;5016606;28;20030;-76
2021/12/25 08:36:17;;;;;;;3.97;2.45;;;;;;;-1.24;92.73;101002.97;5026303;28;20026;-76
2021/12/25 08:38:43;;;;;;;5.28;2.50;;;;;;;-1.29;93.14;101002.09;5035359;28;20500;-74
2021/12/25 08:41:08;;;;;;;3.72;2.30;;;;;;;-1.29;93.03;101009.88;5035988;28;20128;-75
2021/12/25 08:43:36;;;;;;;4.28;2.15;;;;;;;-1.25;93.88;101003.84;5036129;28;20535;-73
2021/12/25 08:46:10;;;;;;;4.65;2.22;;;;;;;-1.20;94.08;101011.66;5036008;28;20041;-76
2021/12/25 08:48:35;;;;;;;4.53;2.20;;;;;;;-1.18;92.26;101003.03;5035195;28;20026;-75
2021/12/25 08:51:01;;;;;;;3.75;2.08;;;;;;;-1.24;91.71;101010.78;5037068;28;20491;-77
2021/12/25 08:53:27;;;;;;;5.28;2.38;;;;;;;-1.28;92.35;101026.31;5036191;28;20037;-75
2021/12/25 08:55:55;;;;;;;4.13;2.00;;;;;;;-1.26;92.58;101025.47;5036815;28;20029;-76
2021/12/25 08:58:21;;;;;;;3.33;2.30;;;;;;;-1.29;92.37;101025.47;5035111;28;20033;-75
2021/12/25 09:00:47;;;;;;;4.57;1.75;;;;;;;-1.25;92.82;101032.41;5035650;28;20497;-75
2021/12/25 09:03:12;;;;;;;3.45;1.70;;;;;;;-1.34;92.08;101035.81;5035283;28;20022;-76
2021/12/25 09:05:38;;;;;;;4.90;2.13;;;;;;;-1.31;92.36;101034.97;5035592;28;20377;-75
2021/12/25 09:08:05;;;;;;;4.93;1.95;;;;;;;-1.35;91.29;101041.00;5035576;28;20079;-74
2021/12/25 09:10:30;;;;;;;3.17;1.75;;;;;;;-1.33;91.43;101041.88;5034899;28;20453;-74
2021/12/25 09:12:56;;;;;;;3.72;1.92;;;;;;;-1.32;92.09;101041.91;5035803;28;20037;-75
2021/12/25 09:15:22;;;;;;;3.20;2.08;;;;;;;-1.27;91.77;101035.88;5035549;28;20033;-75
2021/12/25 09:17:47;;;;;;;2.50;1.70;;;;;;;-1.23;92.84;101048.00;5029980;28;20040;-76
2021/12/25 09:20:16;;;;;;;5.15;2.03;;;;;;;-1.35;89.97;101044.47;5024667;28;20116;-74
2021/12/25 09:22:41;;;;;;;2.88;1.95;;;;;;;-1.27;90.66;101047.13;5035200;28;20022;-72
2021/12/25 09:25:07;;;;;;;8.30;2.40;;;;;;;-1.09;89.78;101043.78;5035522;28;20022;-72
2021/12/25 09:27:33;;;;;;;2.67;1.98;;;;;;;-0.80;88.19;101042.22;5035667;28;20045;-73
2021/12/25 09:29:58;;;;;;;4.40;2.13;;;;;;;-0.59;86.19;101044.94;5035320;28;20033;-74
2021/12/25 09:32:24;;;;;;;3.85;1.95;;;;;;;-0.42;84.91;101044.09;5035279;28;20029;-72
2021/12/25 09:34:49;;;;;;;4.60;2.35;;;;;;;-0.11;84.39;101039.88;5034715;28;20053;-75
2021/12/25 09:37:15;;;;;;;3.10;2.05;;;;;;;0.31;83.49;101045.16;5034431;28;20371;-75
2021/12/25 09:39:41;;;;;;;4.00;2.05;;;;;;;0.88;82.06;101046.88;5034085;28;20542;-74
2021/12/25 09:42:06;;;;;;;3.30;1.98;;;;;;;1.74;77.33;101046.59;5034396;28;20033;-74
2021/12/25 09:44:32;;;;;;;3.80;1.70;;;;;;;2.41;71.64;101040.94;5034733;28;20025;-75
2021/12/25 09:46:57;;;;;;;4.75;2.00;;;;;;;2.82;71.07;101036.25;5034287;28;20029;-74
2021/12/25 09:49:22;;;;;;;3.85;1.95;;;;;;;3.16;67.81;101039.38;5027699;28;20469;-75
2021/12/25 09:51:48;;;;;;;3.00;1.77;;;;;;;3.28;67.39;101044.47;5031833;28;20465;-74
2021/12/25 09:54:15;;;;;;;3.25;2.22;;;;;;;4.06;64.62;101044.34;5031139;28;20129;-74
2021/12/25 09:56:43;;;;;;;4.38;2.15;;;;;;;4.22;61.96;101052.88;5035208;28;20029;-73
2021/12/25 09:59:10;;;;;;;4.25;1.95;;;;;;;3.85;64.82;101058.63;5038840;28;20021;-75
2021/12/25 10:01:40;;;;;;;2.75;1.77;;;;;;;4.40;62.19;101056.94;5034514;28;20075;-73
2021/12/25 10:04:08;;;;;;;3.90;2.20;;;;;;;4.65;60.85;101058.31;5034852;28;20048;-72
2021/12/25 10:06:38;;;;;;;2.33;1.88;;;;;;;4.33;61.93;101063.16;5032942;28;20083;-73
2021/12/25 10:09:18;;;;;;;3.22;2.03;;;;;;;3.13;65.76;101062.09;5033053;28;21433;-74
2021/12/25 10:12:02;;;;;;;2.97;2.10;;;;;;;2.68;66.73;101052.06;5029958;28;20098;-75
2021/12/25 10:14:28;;;;;;;2.90;1.88;;;;;;;2.24;69.32;101065.47;5030448;28;20034;-75
2021/12/25 10:16:54;;;;;;;3.92;2.22;;;;;;;1.38;72.90;101081.53;5034276;28;20041;-72
2021/12/25 10:19:21;;;;;;;4.18;2.10;;;;;;;0.94;74.19;101072.94;5034140;28;20473;-73
2021/12/25 10:21:47;;;;;;;3.70;2.10;;;;;;;1.07;74.62;101072.03;5033967;28;20024;-76
2021/12/25 10:24:24;;;;;;;3.45;2.10;;;;;;;1.08;74.87;101073.78;5034023;28;20029;-75
2021/12/25 10:26:49;;;;;;;3.40;2.28;;;;;;;1.06;74.78;101069.44;5033198;28;20112;-75
2021/12/25 10:29:19;;;;;;;3.53;2.08;;;;;;;0.93;76.52;101074.69;5027833;28;20165;-75
2021/12/25 10:31:45;;;;;;;3.38;1.90;;;;;;;0.79;74.83;101069.50;5023724;28;20462;-73
2021/12/25 10:34:16;;;;;;;3.63;2.22;;;;;;;0.67;74.61;101082.53;5026033;28;20032;-73
2021/12/25 10:36:42;;;;;;;3.80;2.10;;;;;;;0.68;74.88;101081.66;5027629;28;20517;-75
2021/12/25 10:39:12;;;;;;;3.28;1.92;;;;;;;0.60;76.10;101078.16;5031547;28;20385;-75
2021/12/25 10:41:41;;;;;;;4.15;1.90;;;;;;;0.53;77.64;101077.28;5033890;28;20057;-74
2021/12/25 10:44:11;;;;;;;3.15;2.00;;;;;;;0.54;75.31;101073.84;5033041;28;20044;-74
2021/12/25 10:47:08;;;;;;;3.75;1.90;;;;;;;0.89;75.88;101066.88;5033529;28;20029;-72
2021/12/25 10:49:46;;;;;;;3.17;1.70;;;;;;;1.91;70.54;101070.00;5033329;28;20042;-74
2021/12/25 10:52:24;;;;;;;3.75;2.25;;;;;;;2.91;66.58;101067.53;5032609;28;20486;-74
2021/12/25 10:54:55;;;;;;;1.85;1.45;;;;;;;4.15;61.05;101072.19;5034201;28;20057;-73
2021/12/25 10:57:38;;;;;;;1.85;1.60;;;;;;;5.19;56.63;101066.09;5033344;28;20033;-73
2021/12/25 11:00:14;;;;;;;3.97;1.75;;;;;;;6.02;55.21;101050.44;5032827;28;20564;-73
2021/12/25 11:02:41;;;;;;;2.83;1.50;;;;;;;6.31;52.72;101054.13;5034036;28;20108;-75
2021/12/25 11:05:14;;;;;;;1.73;1.50;;;;;;;6.03;52.81;101044.25;5033980;28;20434;-74
2021/12/25 11:07:39;;;;;;;2.45;1.50;;;;;;;6.44;51.58;101059.13;5027146;28;20034;-74
2021/12/25 11:10:08;;;;;;;1.20;1.10;;;;;;;6.44;51.28;101059.97;5020852;28;20022;-72
2021/12/25 11:12:34;;;;;;;3.40;1.50;;;;;;;6.60;50.83;101047.31;5013882;28;20068;-71
2021/12/25 11:15:22;;;;;;;2.08;1.40;;;;;;;7.10;49.18;101053.91;5018786;28;20053;-74
2021/12/25 11:17:52;;;;;;;2.25;1.40;;;;;;;7.50;48.13;101063.38;5027126;28;20103;-73
2021/12/25 11:20:46;;;;;;;2.00;1.50;;;;;;;6.89;46.88;101062.38;5033707;28;20025;-73
2021/12/25 11:23:13;;;;;;;1.58;1.30;;;;;;;6.86;47.36;101057.16;5021277;28;20076;-71
2021/12/25 11:25:40;;;;;;;1.83;1.50;;;;;;;7.20;46.48;101053.63;5029699;28;20026;-73
2021/12/25 11:28:09;;;;;;;2.65;1.50;;;;;;;7.24;46.37;101050.91;5027109;28;20029;-73
2021/12/25 11:30:40;;;;;;;2.22;1.55;;;;;;;6.88;47.97;101054.50;5033594;28;20025;-73
2021/12/25 11:33:05;;;;;;;5.93;2.78;;;;;;;7.46;47.15;101043.28;5033704;28;20033;-71
2021/12/25 11:35:34;;;;;;;2.58;1.60;;;;;;;7.61;46.62;101047.22;5033551;28;20472;-73
2021/12/25 11:38:00;;;;;;;2.25;1.60;;;;;;;6.92;46.40;101045.63;5026819;28;20040;-72
2021/12/25 11:40:28;;;;;;;5.15;1.55;;;;;;;7.17;46.09;101048.47;5025963;28;20472;-73
2021/12/25 11:42:57;;;;;;;1.52;1.17;;;;;;;7.21;46.13;101036.94;5023019;28;20070;-73
2021/12/25 11:45:28;;;;;;;2.17;1.40;;;;;;;7.15;47.35;101041.53;5015969;28;20424;-74
2021/12/25 11:47:57;;;;;;;2.73;1.70;;;;;;;6.51;49.48;101037.00;5030266;28;20025;-74
2021/12/25 11:50:31;;;;;;;1.52;1.42;;;;;;;5.69;50.14;101039.72;5033107;28;20632;-73
2021/12/25 11:53:39;;;;;;;1.92;1.20;;;;;;;5.27;52.24;101044.94;5032800;28;20111;-73
2021/12/25 11:58:52;;;;;;;1.90;1.20;;;;;;;6.93;48.24;101031.56;5031441;28;20490;-70
2021/12/25 12:01:31;;;;;;;1.17;1.10;;;;;;;7.34;46.74;101029.56;5016181;28;20090;-74
2021/12/25 12:04:25;;;;;;;2.17;1.20;;;;;;;7.17;45.76;101027.41;5032478;28;20424;-74
2021/12/25 12:06:53;;;;;;;2.08;1.40;;;;;;;7.30;46.46;101035.81;5030581;28;20053;-74
2021/12/25 12:09:50;;;;;;;2.00;1.30;;;;;;;7.02;45.81;101035.69;5028702;28;20078;-75
2021/12/25 12:12:22;;;;;;;1.77;1.23;;;;;;;7.15;46.26;101023.94;5027753;28;20021;-76
2021/12/25 12:15:14;;;;;;;2.17;1.27;;;;;;;7.76;43.47;101024.84;5027279;28;20022;-76
2021/12/25 12:17:40;;;;;;;2.10;1.50;;;;;;;7.92;43.39;101026.09;5025158;28;20030;-76
2021/12/25 12:20:09;;;;;;;2.58;1.10;;;;;;;8.24;43.18;101018.09;5028268;28;20431;-74
2021/12/25 12:22:48;;;;;;;1.30;1.15;;;;;;;7.54;43.59;101021.09;5029777;28;20765;-76
2021/12/25 12:28:00;;;;;;;2.13;1.10;;;;;;;6.88;43.76;101028.19;5027372;28;20061;-74
2021/12/25 12:30:37;;;;;;;3.03;1.40;;;;;;;7.14;45.54;101021.34;5034903;28;20029;-76
2021/12/25 12:33:11;;;;;;;1.42;1.30;;;;;;;7.29;45.80;101025.31;5031382;28;20067;-75